createdAt,value
2019-02-19T00:01:02.100Z,174.60
2019-02-19T00:03:31.614Z,167.97
2019-02-19T00:06:01.503Z,164.83
2019-02-19T00:08:31.327Z,161.47
2019-02-19T00:11:01.088Z,159.83
2019-02-19T00:13:30.384Z,164.83
2019-02-19T00:15:59.852Z,170.97
2019-02-19T00:18:29.919Z,166.57
2019-02-19T00:20:59.236Z,164.00
2019-02-19T00:23:29.944Z,172.23
2019-02-19T00:25:59.815Z,170.37
2019-02-19T00:28:29.325Z,176.57
2019-02-19T00:30:59.779Z,172.27
2019-02-19T00:33:29.017Z,171.53
2019-02-19T00:35:58.992Z,166.33
2019-02-19T00:38:29.098Z,171.80
2019-02-19T00:40:58.795Z,169.80
2019-02-19T00:43:30.530Z,167.73
2019-02-19T00:46:00.282Z,170.20
2019-02-19T00:48:29.973Z,171.30
2019-02-19T00:50:59.709Z,167.97
2019-02-19T00:53:30.321Z,168.70
2019-02-19T00:55:59.812Z,167.57
2019-02-19T00:58:29.340Z,158.57
2019-02-19T01:01:00.381Z,157.03
2019-02-19T01:03:30.159Z,162.13
2019-02-19T01:05:59.485Z,164.20
2019-02-19T01:08:29.705Z,160.93
2019-02-19T01:10:59.380Z,168.67
2019-02-19T01:13:29.109Z,171.77
2019-02-19T01:15:59.653Z,159.20
2019-02-19T01:18:29.629Z,174.17
2019-02-19T01:20:58.771Z,160.77
2019-02-19T01:23:29.084Z,152.53
2019-02-19T01:25:58.990Z,156.83
2019-02-19T01:28:28.744Z,155.37
2019-02-19T01:30:58.492Z,153.37
2019-02-19T01:33:28.291Z,158.23
2019-02-19T01:35:57.719Z,148.40
2019-02-19T01:38:28.524Z,147.70
2019-02-19T01:40:58.461Z,158.77
2019-02-19T01:43:27.678Z,145.07
2019-02-19T01:45:58.156Z,151.93
2019-02-19T01:48:27.297Z,140.77
2019-02-19T01:50:56.888Z,136.67
2019-02-19T01:53:27.872Z,133.90
2019-02-19T01:55:57.842Z,131.57
2019-02-19T01:58:26.966Z,138.03
2019-02-19T02:00:57.442Z,132.50
2019-02-19T02:06:22.769Z,140.20
2019-02-19T02:08:53.456Z,138.30
2019-02-19T02:11:22.811Z,142.80
2019-02-19T02:13:52.377Z,142.37
2019-02-19T02:16:22.250Z,146.10
2019-02-19T02:18:51.604Z,144.63
2019-02-19T02:21:20.833Z,140.27
2019-02-19T02:23:50.291Z,141.90
2019-02-19T02:26:20.277Z,139.73
2019-02-19T02:28:49.803Z,137.57
2019-02-19T02:31:19.515Z,136.63
2019-02-19T02:33:49.039Z,143.23
2019-02-19T02:36:18.805Z,144.90
2019-02-19T02:38:48.839Z,140.70
2019-02-19T02:41:18.197Z,145.93
2019-02-19T02:43:48.027Z,141.67
2019-02-19T02:46:17.428Z,138.37
2019-02-19T02:48:46.315Z,135.77
2019-02-19T02:51:16.274Z,141.50
2019-02-19T02:53:46.280Z,139.40
2019-02-19T02:56:16.374Z,145.07
2019-02-19T02:58:46.065Z,145.87
2019-02-19T03:01:15.672Z,148.97
2019-02-19T03:03:44.792Z,153.33
2019-02-19T03:06:42.039Z,151.87
2019-02-19T03:09:11.210Z,149.57
2019-02-19T03:11:41.038Z,153.63
2019-02-19T03:14:10.910Z,154.97
2019-02-19T03:16:40.291Z,159.40
2019-02-19T03:19:09.746Z,158.00
2019-02-19T03:21:39.681Z,159.37
2019-02-19T03:24:10.220Z,162.73
2019-02-19T03:26:39.849Z,167.87
2019-02-19T03:29:10.344Z,158.40
2019-02-19T03:31:39.842Z,156.93
2019-02-19T03:34:09.883Z,160.97
2019-02-19T03:36:39.348Z,156.90
2019-02-19T03:39:09.266Z,161.73
2019-02-19T03:41:38.789Z,158.77
2019-02-19T03:44:08.776Z,153.10
2019-02-19T03:46:38.703Z,165.77
2019-02-19T03:49:08.115Z,165.63
2019-02-19T03:51:37.731Z,162.63
2019-02-19T03:54:07.126Z,168.00
2019-02-19T03:56:36.886Z,166.57
2019-02-19T03:59:06.483Z,166.20
2019-02-19T04:01:35.791Z,167.10
2019-02-19T04:04:04.934Z,163.60
2019-02-19T04:06:34.868Z,169.37
2019-02-19T04:09:04.657Z,169.13
2019-02-19T04:11:34.141Z,163.27
2019-02-19T04:14:03.374Z,160.37
2019-02-19T04:16:33.083Z,166.17
2019-02-19T04:19:02.766Z,161.50
2019-02-19T04:21:32.377Z,163.37
2019-02-19T04:24:02.289Z,164.33
2019-02-19T04:26:32.155Z,165.87
2019-02-19T04:29:01.625Z,161.73
2019-02-19T04:31:31.840Z,162.27
2019-02-19T04:34:01.489Z,164.43
2019-02-19T04:36:30.666Z,165.73
2019-02-19T04:39:00.195Z,161.87
2019-02-19T04:41:30.289Z,148.10
2019-02-19T04:44:00.179Z,162.33
2019-02-19T04:46:31.783Z,162.43
2019-02-19T04:49:02.084Z,164.43
2019-02-19T04:51:31.719Z,158.67
2019-02-19T04:54:01.645Z,163.17
2019-02-19T04:56:31.422Z,153.40
2019-02-19T04:59:05.619Z,166.00
2019-02-19T05:01:36.489Z,159.63
2019-02-19T05:04:06.174Z,155.57
2019-02-19T05:06:36.233Z,140.43
2019-02-19T05:09:06.563Z,149.93
2019-02-19T05:11:36.462Z,153.93
2019-02-19T05:14:06.802Z,154.10
2019-02-19T05:16:40.748Z,151.07
2019-02-19T05:19:08.753Z,154.80
2019-02-19T05:21:38.971Z,152.53
2019-02-19T05:24:09.998Z,151.93
2019-02-19T05:26:39.848Z,159.57
2019-02-19T05:29:10.502Z,153.17
2019-02-19T05:31:40.742Z,152.90
2019-02-19T05:34:11.786Z,145.50
2019-02-19T05:36:42.208Z,151.53
2019-02-19T05:39:12.786Z,148.33
2019-02-19T05:41:43.077Z,149.93
2019-02-19T05:44:13.662Z,149.00
2019-02-19T05:46:49.729Z,152.20
2019-02-19T05:49:14.657Z,158.77
2019-02-19T05:51:44.367Z,169.37
2019-02-19T05:54:14.351Z,160.17
2019-02-19T05:56:44.469Z,157.00
2019-02-19T05:59:14.818Z,152.17
2019-02-19T06:01:44.988Z,151.07
2019-02-19T06:04:15.632Z,147.93
2019-02-19T06:06:45.828Z,145.17
2019-02-19T06:09:15.640Z,160.57
2019-02-19T06:11:45.723Z,143.37
2019-02-19T06:14:15.701Z,139.37
2019-02-19T06:16:45.832Z,137.13
2019-02-19T06:19:15.855Z,136.10
2019-02-19T06:21:45.833Z,135.60
2019-02-19T06:24:15.844Z,129.93
2019-02-19T06:26:47.177Z,123.80
2019-02-19T06:29:17.650Z,125.93
2019-02-19T06:31:47.747Z,128.93
2019-02-19T06:34:18.284Z,125.57
2019-02-19T06:36:47.688Z,131.13
2019-02-19T06:39:17.758Z,128.27
2019-02-19T06:41:47.490Z,142.67
2019-02-19T06:44:17.624Z,138.27
2019-02-19T06:46:48.140Z,124.60
2019-02-19T06:49:17.991Z,100.43
2019-02-19T06:51:47.976Z,87.53
2019-02-19T06:54:18.285Z,75.63
2019-02-19T06:56:48.061Z,72.97
2019-02-19T06:59:17.998Z,69.13
2019-02-19T07:02:06.004Z,68.03
2019-02-19T07:04:44.182Z,69.27
2019-02-19T07:07:15.194Z,69.53
2019-02-19T07:09:45.112Z,69.00
2019-02-19T07:12:15.277Z,76.70
2019-02-19T07:14:45.624Z,81.10
2019-02-19T07:17:16.199Z,75.80
2019-02-19T07:19:47.404Z,79.50
2019-02-19T07:22:20.168Z,118.00
2019-02-19T07:24:55.552Z,115.63
2019-02-19T07:27:25.829Z,94.00
2019-02-19T07:29:55.977Z,127.13
2019-02-19T07:32:29.385Z,119.50
2019-02-19T07:34:59.780Z,110.73
2019-02-19T07:37:30.187Z,98.67
2019-02-19T07:40:01.368Z,95.80
2019-02-19T07:42:31.800Z,95.37
2019-02-19T07:45:01.532Z,94.77
2019-02-19T07:47:31.832Z,89.80
2019-02-19T07:50:01.946Z,97.17
2019-02-19T07:52:31.827Z,94.57
2019-02-19T07:55:02.117Z,92.53
2019-02-19T07:57:32.856Z,89.27
2019-02-19T08:00:02.977Z,87.63
2019-02-19T08:02:32.903Z,87.30
2019-02-19T08:05:03.762Z,85.40
2019-02-19T08:07:33.649Z,91.27
2019-02-19T08:10:03.390Z,81.07
2019-02-19T08:12:33.543Z,80.93
2019-02-19T08:15:05.432Z,88.60
2019-02-19T08:17:36.056Z,91.77
2019-02-19T08:20:14.925Z,91.47
2019-02-19T08:22:37.878Z,95.57
2019-02-19T08:25:11.257Z,89.07
2019-02-19T08:27:41.154Z,94.87
2019-02-19T08:30:12.318Z,96.60
2019-02-19T08:32:42.481Z,98.58
2019-02-19T08:35:12.860Z,100.40
2019-02-19T08:37:43.179Z,103.30
2019-02-19T08:40:13.445Z,109.47
2019-02-19T08:42:42.925Z,101.03
2019-02-19T08:45:13.149Z,100.73
2019-02-19T08:47:43.130Z,100.73
2019-02-19T08:50:13.715Z,103.42
2019-02-19T08:52:43.222Z,101.43
2019-02-19T08:55:13.666Z,104.63
2019-02-19T08:57:43.758Z,93.47
2019-02-19T09:00:13.953Z,97.00
2019-02-19T09:02:43.553Z,102.90
2019-02-19T09:05:13.609Z,92.77
2019-02-19T09:07:43.225Z,107.13
2019-02-19T09:10:13.449Z,109.65
2019-02-19T09:12:43.540Z,111.93
2019-02-19T09:15:13.577Z,100.17
2019-02-19T09:18:04.442Z,106.87
2019-02-19T09:20:34.699Z,106.10
2019-02-19T09:23:05.113Z,103.27
2019-02-19T09:25:34.562Z,110.90
2019-02-19T09:28:04.557Z,131.03
2019-02-19T09:30:34.270Z,133.00
2019-02-19T09:33:04.551Z,138.33
2019-02-19T09:35:34.493Z,139.87
2019-02-19T09:38:04.835Z,147.70
2019-02-19T09:40:34.669Z,164.57
2019-02-19T09:43:04.602Z,179.70
2019-02-19T09:45:35.211Z,192.87
2019-02-19T09:48:05.180Z,190.50
2019-02-19T09:50:35.067Z,188.87
2019-02-19T09:53:04.612Z,209.50
2019-02-19T09:55:34.937Z,204.13
2019-02-19T09:58:11.223Z,190.43
2019-02-19T10:00:41.899Z,186.70
2019-02-19T10:03:11.804Z,167.07
2019-02-19T10:05:41.824Z,181.97
2019-02-19T10:08:11.704Z,181.57
2019-02-19T10:10:41.970Z,175.50
2019-02-19T10:13:12.709Z,176.27
2019-02-19T10:15:42.844Z,171.07
2019-02-19T10:18:12.805Z,172.07
2019-02-19T10:20:42.944Z,176.17
2019-02-19T10:23:13.774Z,172.27
2019-02-19T10:25:44.671Z,163.93
2019-02-19T10:28:15.079Z,159.90
2019-02-19T10:30:45.875Z,155.67
2019-02-19T10:33:15.732Z,151.90
2019-02-19T10:35:45.356Z,149.37
2019-02-19T10:38:15.353Z,153.60
2019-02-19T10:40:45.760Z,162.23
2019-02-19T10:43:15.410Z,153.37
2019-02-19T10:45:45.481Z,159.37
2019-02-19T10:48:18.957Z,162.83
2019-02-19T10:50:47.332Z,157.17
2019-02-19T10:53:17.836Z,157.53
2019-02-19T10:55:47.720Z,164.97
2019-02-19T10:58:23.045Z,163.10
2019-02-19T11:00:49.184Z,159.17
2019-02-19T11:03:20.520Z,163.00
2019-02-19T11:05:50.242Z,165.13
2019-02-19T11:08:20.427Z,166.93
2019-02-19T11:10:50.875Z,152.10
2019-02-19T11:13:20.575Z,165.23
2019-02-19T11:15:51.042Z,163.80
2019-02-19T11:18:41.412Z,162.40
2019-02-19T11:21:19.249Z,174.70
2019-02-19T11:23:43.585Z,171.87
2019-02-19T11:26:14.307Z,172.77
2019-02-19T11:28:44.224Z,174.60
2019-02-19T11:31:14.523Z,165.00
2019-02-19T11:33:44.349Z,160.30
2019-02-19T11:36:14.872Z,175.37
2019-02-19T11:38:44.449Z,172.70
2019-02-19T11:41:14.620Z,172.33
2019-02-19T11:43:44.272Z,187.20
2019-02-19T11:46:15.034Z,195.03
2019-02-19T11:48:45.197Z,183.87
2019-02-19T11:51:15.356Z,194.77
2019-02-19T11:53:46.003Z,200.03
2019-02-19T11:56:16.848Z,210.37
2019-02-19T11:58:46.868Z,204.03
2019-02-19T12:01:16.340Z,209.77
2019-02-19T12:03:46.281Z,207.57
2019-02-19T12:06:16.582Z,217.40
2019-02-19T12:08:46.718Z,221.68
2019-02-19T12:11:16.507Z,213.47
2019-02-19T12:13:46.600Z,213.43
2019-02-19T12:16:16.295Z,220.57
2019-02-19T12:18:46.581Z,211.33
2019-02-19T12:21:17.102Z,216.03
2019-02-19T12:23:46.687Z,225.23
2019-02-19T12:26:16.971Z,237.47
2019-02-19T12:28:46.836Z,226.47
2019-02-19T12:31:16.503Z,231.80
2019-02-19T12:33:46.572Z,236.90
2019-02-19T12:36:16.858Z,227.10
2019-02-19T12:38:47.422Z,241.33
2019-02-19T12:41:17.406Z,229.63
2019-02-19T12:43:47.745Z,245.00
2019-02-19T12:46:18.376Z,214.37
2019-02-19T12:48:54.337Z,210.30
2019-02-19T12:51:26.278Z,221.57
2019-02-19T12:53:52.967Z,218.47
2019-02-19T12:56:25.426Z,242.67
2019-02-19T12:58:55.608Z,223.53
2019-02-19T13:01:25.953Z,232.97
2019-02-19T13:03:56.670Z,213.43
2019-02-19T13:06:26.362Z,244.30
2019-02-19T13:08:56.522Z,251.37
2019-02-19T13:11:26.766Z,248.57
2019-02-19T13:13:57.422Z,262.30
2019-02-19T13:16:27.878Z,240.80
2019-02-19T13:19:03.431Z,236.10
2019-02-19T13:21:29.815Z,243.20
2019-02-19T13:24:01.370Z,260.20
2019-02-19T13:26:32.179Z,233.37
2019-02-19T13:29:02.626Z,239.63
2019-02-19T13:31:32.699Z,241.10
2019-02-19T13:34:02.577Z,252.90
2019-02-19T13:36:32.545Z,228.57
2019-02-19T13:39:04.703Z,258.63
2019-02-19T13:41:37.059Z,229.03
2019-02-19T13:44:07.723Z,234.93
2019-02-19T13:46:38.067Z,244.17
2019-02-19T13:49:12.305Z,235.67
2019-02-19T13:51:39.549Z,215.67
2019-02-19T13:54:14.442Z,214.87
2019-02-19T13:56:44.300Z,227.23
2019-02-19T13:59:16.351Z,220.67
2019-02-19T14:01:46.575Z,228.43
2019-02-19T14:04:16.870Z,224.57
2019-02-19T14:06:47.345Z,223.00
2019-02-19T14:09:17.600Z,229.13
2019-02-19T14:11:47.940Z,229.77
2019-02-19T14:14:38.661Z,238.80
2019-02-19T14:17:13.143Z,232.83
2019-02-19T14:19:53.824Z,233.03
2019-02-19T14:22:58.477Z,225.33
2019-02-19T14:25:37.679Z,233.10
2019-02-19T14:28:25.825Z,231.93
2019-02-19T14:31:16.421Z,230.10
2019-02-19T14:34:12.252Z,224.23
2019-02-19T14:37:04.588Z,231.43
2019-02-19T14:39:53.957Z,223.57
2019-02-19T14:42:49.778Z,234.33
2019-02-19T14:45:48.467Z,221.63
2019-02-19T14:48:38.064Z,206.47
2019-02-19T14:51:29.094Z,217.50
2019-02-19T14:54:21.282Z,208.70
2019-02-19T14:57:08.210Z,211.50
2019-02-19T15:00:07.298Z,220.37
2019-02-19T15:02:53.287Z,205.90
2019-02-19T15:05:41.337Z,207.63
2019-02-19T15:08:29.910Z,210.13
2019-02-19T15:11:19.875Z,217.83
2019-02-19T15:14:08.108Z,210.60
2019-02-19T15:17:04.757Z,210.60
2019-02-19T15:19:45.530Z,211.07
2019-02-19T15:22:33.680Z,206.43
2019-02-19T15:25:24.669Z,216.73
2019-02-19T15:28:07.801Z,202.33
2019-02-19T15:31:07.404Z,206.80
2019-02-19T15:34:02.498Z,214.03
2019-02-19T15:36:58.333Z,208.30
2019-02-19T15:39:46.469Z,216.23
2019-02-19T15:42:33.792Z,199.73
2019-02-19T15:45:23.882Z,209.67
2019-02-19T15:48:20.521Z,202.37
2019-02-19T15:51:18.902Z,208.20
2019-02-19T15:54:06.109Z,215.03
2019-02-19T15:57:03.672Z,204.53
2019-02-19T16:00:02.459Z,211.47
2019-02-19T16:02:53.263Z,207.07
2019-02-19T16:05:41.321Z,209.53
2019-02-19T16:08:37.023Z,209.47
2019-02-19T16:11:12.568Z,201.03
2019-02-19T16:13:59.376Z,212.07
2019-02-19T16:16:54.278Z,208.87
2019-02-19T16:19:32.610Z,206.23
2019-02-19T16:22:30.869Z,206.10
2019-02-19T16:25:19.008Z,207.07
2019-02-19T16:28:22.349Z,208.60
2019-02-19T16:31:00.721Z,207.03
2019-02-19T16:33:38.012Z,218.53
2019-02-19T16:36:28.709Z,211.83
2019-02-19T16:39:15.230Z,223.27
2019-02-19T16:42:03.257Z,217.70
2019-02-19T16:44:43.402Z,230.93
2019-02-19T16:47:47.926Z,229.40
2019-02-19T16:50:35.983Z,227.70
2019-02-19T16:53:21.147Z,218.93
2019-02-19T16:56:15.322Z,229.13
2019-02-19T16:59:09.577Z,211.53
2019-02-19T17:02:00.101Z,219.93
2019-02-19T17:04:44.352Z,214.50
2019-02-19T17:07:18.875Z,223.43
2019-02-19T17:10:06.920Z,222.73
2019-02-19T17:12:48.268Z,237.60
2019-02-19T17:15:35.824Z,221.27
2019-02-19T17:18:31.850Z,222.20
2019-02-19T17:21:22.875Z,217.73
2019-02-19T17:24:04.342Z,209.17
2019-02-19T17:26:43.678Z,216.80
2019-02-19T17:29:30.895Z,214.03
2019-02-19T17:32:24.978Z,216.70
2019-02-19T17:35:05.033Z,202.70
2019-02-19T17:37:51.640Z,210.07
2019-02-19T17:40:38.142Z,212.27
2019-02-19T17:43:33.568Z,208.50
2019-02-19T17:46:27.527Z,210.47
2019-02-19T17:49:18.535Z,206.97
2019-02-19T17:52:05.560Z,220.70
2019-02-19T17:54:47.337Z,214.60
2019-02-19T17:57:38.170Z,212.20
2019-02-19T18:00:36.833Z,215.67
2019-02-19T18:03:22.416Z,223.93
2019-02-19T18:06:13.515Z,215.53
2019-02-19T18:09:00.650Z,227.13
2019-02-19T18:11:54.930Z,220.97
2019-02-19T18:14:49.120Z,216.60
2019-02-19T18:17:35.515Z,220.67
2019-02-19T18:20:05.664Z,257.63
2019-02-19T18:22:34.381Z,230.47
2019-02-19T18:25:03.487Z,217.50
2019-02-19T18:27:31.999Z,208.53
2019-02-19T18:30:00.885Z,210.93
2019-02-19T18:32:30.084Z,217.50
2019-02-19T18:34:58.929Z,210.80
2019-02-19T18:37:28.085Z,212.40
2019-02-19T18:39:57.057Z,208.40
2019-02-19T18:42:26.066Z,213.40
2019-02-19T18:44:56.770Z,213.20
2019-02-19T18:47:25.437Z,212.73
2019-02-19T18:49:54.114Z,214.57
2019-02-19T18:52:22.940Z,213.43
2019-02-19T18:54:51.731Z,229.77
2019-02-19T18:57:20.743Z,227.33
2019-02-19T18:59:49.520Z,226.47
2019-02-19T19:02:18.416Z,230.50
2019-02-19T19:04:47.700Z,222.60
2019-02-19T19:07:16.588Z,224.27
2019-02-19T19:09:45.581Z,226.00
2019-02-19T19:12:14.371Z,228.80
2019-02-19T19:14:43.220Z,227.57
2019-02-19T19:17:12.353Z,235.97
2019-02-19T19:19:41.322Z,242.97
2019-02-19T19:22:10.203Z,242.80
2019-02-19T19:24:39.125Z,254.97
2019-02-19T19:27:08.551Z,231.73
2019-02-19T19:29:39.073Z,231.03
2019-02-19T19:32:08.805Z,232.87
2019-02-19T19:34:39.158Z,239.93
2019-02-19T19:37:09.332Z,236.37
2019-02-19T19:39:41.894Z,244.47
2019-02-19T19:42:11.925Z,236.23
2019-02-19T19:44:42.005Z,231.87
2019-02-19T19:47:13.596Z,232.57
2019-02-19T19:49:45.066Z,243.33
2019-02-19T19:52:15.399Z,246.60
2019-02-19T19:54:45.601Z,236.90
2019-02-19T19:57:15.932Z,233.63
2019-02-19T19:59:45.634Z,227.87
2019-02-19T20:02:18.404Z,230.43
2019-02-19T20:04:47.639Z,231.10
2019-02-19T20:07:17.392Z,241.17
2019-02-19T20:09:46.471Z,240.07
2019-02-19T20:12:16.397Z,235.67
2019-02-19T20:14:46.000Z,238.57
2019-02-19T20:17:15.768Z,238.57
2019-02-19T20:19:45.499Z,240.83
2019-02-19T20:22:15.883Z,233.67
2019-02-19T20:24:45.877Z,238.43
2019-02-19T20:27:15.826Z,227.73
2019-02-19T20:29:45.754Z,233.70
2019-02-19T20:32:16.459Z,228.13
2019-02-19T20:34:46.456Z,232.23
2019-02-19T20:37:16.152Z,237.13
2019-02-19T20:39:47.342Z,246.97
2019-02-19T20:42:17.024Z,255.77
2019-02-19T20:44:47.192Z,264.83
2019-02-19T20:47:16.863Z,273.77
2019-02-19T20:49:46.806Z,274.20
2019-02-19T20:52:16.413Z,256.87
2019-02-19T20:54:46.393Z,257.33
2019-02-19T20:57:16.471Z,251.47
2019-02-19T20:59:46.405Z,256.50
2019-02-19T21:02:16.422Z,245.87
2019-02-19T21:04:46.587Z,251.20
2019-02-19T21:07:16.321Z,257.80
2019-02-19T21:09:46.916Z,240.87
2019-02-19T21:12:16.726Z,249.97
2019-02-19T21:14:47.068Z,245.67
2019-02-19T21:17:15.886Z,240.40
2019-02-19T21:19:44.750Z,242.77
2019-02-19T21:22:13.646Z,239.03
2019-02-19T21:24:43.490Z,235.93
2019-02-19T21:27:13.051Z,242.27
2019-02-19T21:29:43.130Z,246.23
2019-02-19T21:32:12.873Z,255.17
2019-02-19T21:34:42.963Z,253.73
2019-02-19T21:37:11.840Z,255.80
2019-02-19T21:39:40.904Z,241.37
2019-02-19T21:42:09.825Z,243.67
2019-02-19T21:44:40.031Z,254.97
2019-02-19T21:47:08.597Z,251.70
2019-02-19T21:49:37.525Z,236.57
2019-02-19T21:52:06.519Z,244.33
2019-02-19T21:54:35.298Z,238.17
2019-02-19T21:57:04.252Z,239.30
2019-02-19T21:59:32.973Z,253.27
2019-02-19T22:02:02.070Z,237.03
2019-02-19T22:04:32.087Z,243.40
2019-02-19T22:07:01.188Z,252.90
2019-02-19T22:09:31.157Z,243.70
2019-02-19T22:12:00.045Z,250.77
2019-02-19T22:14:29.047Z,247.07
2019-02-19T22:16:59.197Z,243.10
2019-02-19T22:19:28.190Z,243.07
2019-02-19T22:22:07.339Z,232.60
2019-02-19T22:24:36.995Z,231.90
2019-02-19T22:27:06.301Z,249.00
2019-02-19T22:29:35.334Z,255.97
2019-02-19T22:32:04.314Z,264.32
2019-02-19T22:34:33.103Z,254.67
2019-02-19T22:37:01.992Z,246.30
2019-02-19T22:39:30.883Z,250.67
2019-02-19T22:41:59.669Z,251.17
2019-02-19T22:44:28.460Z,252.93
2019-02-19T22:46:57.554Z,252.60
2019-02-19T22:49:26.442Z,247.63
2019-02-19T22:51:55.436Z,250.27
2019-02-19T22:54:35.421Z,249.23
2019-02-19T22:57:04.381Z,250.07
2019-02-19T22:59:33.061Z,260.40
2019-02-19T23:02:30.215Z,247.23
2019-02-19T23:04:59.003Z,255.43
2019-02-19T23:07:27.891Z,248.37
2019-02-19T23:09:56.784Z,266.93
2019-02-19T23:12:25.542Z,271.03
2019-02-19T23:14:54.357Z,274.73
2019-02-19T23:17:23.168Z,277.37
2019-02-19T23:19:52.034Z,270.93
2019-02-19T23:22:21.853Z,269.77
2019-02-19T23:24:50.942Z,274.80
2019-02-19T23:27:19.851Z,269.50
2019-02-19T23:29:48.928Z,275.67
2019-02-19T23:32:17.820Z,264.83
2019-02-19T23:34:48.419Z,273.77
2019-02-19T23:37:19.446Z,267.00
2019-02-19T23:39:48.180Z,263.47
2019-02-19T23:42:17.062Z,253.43
2019-02-19T23:44:45.950Z,261.83
2019-02-19T23:47:14.806Z,261.20
2019-02-19T23:49:43.596Z,257.17
2019-02-19T23:52:12.416Z,267.93
2019-02-19T23:54:41.022Z,262.37
2019-02-19T23:57:09.787Z,268.83
2019-02-19T23:59:38.694Z,263.20
